Time;durP1;ratioP1;P1;durP2;ratioP2;P2;SDS_P1;SDS_P2;PMS_P1;PMS_P2;Temp;Humidity;BMP_temperature;BMP_pressure;BME280_temperature;BME280_humidity;BME280_pressure;Samples;Min_cycle;Max_cycle;Signal;HPM_P1;HPM_P2
2022/05/30 00:00:14;;;;;;;6.88;1.73;;;10.70;99.90;;;;;;4949692;28;20082;-45
2022/05/30 00:02:40;;;;;;;4.20;1.30;;;10.60;99.90;;;;;;4949760;28;20112;-45
2022/05/30 00:05:07;;;;;;;3.08;1.30;;;10.50;99.90;;;;;;4947896;29;20030;-45
2022/05/30 00:07:33;;;;;;;4.22;1.50;;;10.60;99.90;;;;;;4949394;28;20402;-44
2022/05/30 00:09:58;;;;;;;4.75;1.35;;;10.50;99.90;;;;;;4949879;29;20027;-44
2022/05/30 00:12:24;;;;;;;3.28;1.30;;;10.50;99.90;;;;;;4949105;29;20503;-44
2022/05/30 00:14:49;;;;;;;4.38;1.60;;;10.40;99.90;;;;;;4949962;28;20110;-44
2022/05/30 00:17:15;;;;;;;5.72;1.27;;;10.40;99.90;;;;;;4949374;29;20565;-45
2022/05/30 00:19:40;;;;;;;5.75;1.50;;;10.30;99.90;;;;;;4948516;29;20118;-44
2022/05/30 00:22:11;;;;;;;3.70;1.50;;;10.30;99.90;;;;;;4949929;29;20039;-43
2022/05/30 00:24:37;;;;;;;5.82;1.50;;;10.20;99.90;;;;;;4947978;28;20015;-44
2022/05/30 00:27:03;;;;;;;4.22;1.30;;;10.20;99.90;;;;;;4949660;28;20039;-44
2022/05/30 00:29:29;;;;;;;3.60;1.30;;;10.20;99.90;;;;;;4948673;28;20019;-45
2022/05/30 00:31:55;;;;;;;4.22;1.50;;;10.20;99.90;;;;;;4949438;28;20031;-44
2022/05/30 00:34:21;;;;;;;5.50;1.60;;;10.10;99.90;;;;;;4948707;28;20019;-44
2022/05/30 00:36:46;;;;;;;3.33;1.30;;;10.10;99.90;;;;;;4949979;28;20503;-44
2022/05/30 00:39:12;;;;;;;2.35;1.15;;;10.10;99.90;;;;;;4948921;28;20110;-44
2022/05/30 00:41:41;;;;;;;2.95;1.30;;;10.10;99.90;;;;;;4949623;29;20066;-45
2022/05/30 00:44:09;;;;;;;4.85;1.50;;;10.10;99.90;;;;;;4949431;29;20023;-43
2022/05/30 00:46:35;;;;;;;5.38;1.40;;;10.10;99.90;;;;;;4948504;29;20045;-45
2022/05/30 00:49:05;;;;;;;3.72;1.63;;;10.10;99.90;;;;;;4949813;29;20491;-45
2022/05/30 00:51:35;;;;;;;4.10;1.60;;;10.00;99.90;;;;;;4948364;28;20086;-44
2022/05/30 00:54:03;;;;;;;5.90;1.70;;;10.00;99.90;;;;;;4948605;28;20114;-43
2022/05/30 00:56:34;;;;;;;4.70;1.50;;;10.00;99.90;;;;;;4948643;28;20083;-44
2022/05/30 00:59:01;;;;;;;4.07;1.40;;;10.00;99.90;;;;;;4949203;28;20027;-44
2022/05/30 01:01:27;;;;;;;5.03;2.08;;;10.00;99.90;;;;;;4947388;28;20027;-45
2022/05/30 01:06:41;;;;;;;5.18;1.65;;;10.00;99.90;;;;;;4948380;28;20050;-44
2022/05/30 01:09:17;;;;;;;5.55;1.80;;;9.90;99.90;;;;;;4948283;29;20023;-44
2022/05/30 01:11:58;;;;;;;4.90;1.70;;;9.90;99.90;;;;;;4948117;28;20094;-44
2022/05/30 01:14:27;;;;;;;7.07;1.65;;;9.90;99.90;;;;;;4928531;29;20448;-43
2022/05/30 01:16:53;;;;;;;5.57;1.75;;;9.90;99.90;;;;;;4944011;29;20062;-44
2022/05/30 01:19:55;;;;;;;4.28;1.77;;;9.90;99.90;;;;;;4948275;29;20483;-45
2022/05/30 01:22:45;;;;;;;6.43;1.98;;;9.80;99.90;;;;;;4947411;28;20043;-44
2022/05/30 01:25:32;;;;;;;5.20;2.03;;;9.70;99.90;;;;;;4949076;28;20059;-43
2022/05/30 01:28:22;;;;;;;5.20;1.55;;;9.70;99.90;;;;;;4948166;29;20035;-44
2022/05/30 01:30:49;;;;;;;4.05;1.75;;;9.60;99.90;;;;;;4947677;29;20123;-44
2022/05/30 01:33:18;;;;;;;4.65;1.50;;;9.60;99.90;;;;;;4948447;28;20120;-44
2022/05/30 01:35:43;;;;;;;8.48;2.03;;;9.70;99.90;;;;;;4947303;28;20111;-44
2022/05/30 01:38:09;;;;;;;4.28;1.75;;;9.70;99.90;;;;;;4948080;29;20174;-44
2022/05/30 01:40:35;;;;;;;7.93;2.00;;;9.70;99.90;;;;;;4947651;29;20114;-44
2022/05/30 01:43:00;;;;;;;5.75;1.70;;;9.70;99.90;;;;;;4947517;28;20027;-44
2022/05/30 01:45:27;;;;;;;5.38;1.50;;;9.70;99.90;;;;;;4947402;29;20915;-45
2022/05/30 01:47:54;;;;;;;4.15;1.52;;;9.70;99.90;;;;;;4948342;28;20027;-44
2022/05/30 01:50:22;;;;;;;4.03;1.52;;;9.70;99.90;;;;;;4947376;28;20050;-44
2022/05/30 01:52:48;;;;;;;3.30;1.40;;;9.80;99.90;;;;;;4947508;28;20066;-44
2022/05/30 01:55:14;;;;;;;2.88;1.40;;;9.70;99.90;;;;;;4947367;28;20019;-44
2022/05/30 01:57:39;;;;;;;4.38;1.40;;;9.80;99.90;;;;;;4946716;28;20081;-44
2022/05/30 02:00:07;;;;;;;4.57;1.60;;;9.80;99.90;;;;;;4948669;29;20161;-44
2022/05/30 02:02:35;;;;;;;5.75;1.98;;;9.70;99.90;;;;;;4947090;29;20082;-44
2022/05/30 02:05:00;;;;;;;3.88;1.77;;;9.70;99.90;;;;;;4947200;28;20411;-44
2022/05/30 02:07:26;;;;;;;5.18;1.58;;;9.70;99.90;;;;;;4946949;28;20198;-44
2022/05/30 02:09:52;;;;;;;4.78;1.80;;;9.60;99.90;;;;;;4947640;28;20029;-44
2022/05/30 02:12:17;;;;;;;3.75;1.52;;;9.60;99.90;;;;;;4946351;28;20468;-44
2022/05/30 02:14:44;;;;;;;3.08;1.33;;;9.60;99.90;;;;;;4947840;29;20086;-44
2022/05/30 02:17:10;;;;;;;5.65;2.03;;;9.50;99.90;;;;;;4947966;28;20043;-44
2022/05/30 02:19:41;;;;;;;7.85;2.08;;;9.50;99.90;;;;;;4946321;28;20050;-44
2022/05/30 02:22:12;;;;;;;5.32;1.98;;;9.40;99.90;;;;;;4947610;29;20566;-43
2022/05/30 02:24:38;;;;;;;4.90;2.10;;;9.40;99.90;;;;;;4946696;29;20086;-44
2022/05/30 02:27:05;;;;;;;4.88;2.67;;;9.40;99.90;;;;;;4947725;28;20047;-44
2022/05/30 02:29:31;;;;;;;4.43;2.13;;;9.30;99.90;;;;;;4947261;28;20027;-44
2022/05/30 02:31:56;;;;;;;4.05;2.03;;;9.30;99.90;;;;;;4946464;29;20434;-44
2022/05/30 02:37:06;;;;;;;3.10;2.20;;;9.20;99.90;;;;;;4928905;29;20124;-44
2022/05/30 02:39:32;;;;;;;5.45;2.80;;;9.20;99.90;;;;;;4941130;28;20474;-44
2022/05/30 02:41:58;;;;;;;4.32;2.00;;;9.20;99.90;;;;;;4947662;29;20023;-44
2022/05/30 02:44:25;;;;;;;7.30;2.83;;;9.10;99.90;;;;;;4947070;28;20106;-44
2022/05/30 02:46:58;;;;;;;6.43;2.70;;;9.10;99.90;;;;;;4947626;28;20077;-44
2022/05/30 02:49:25;;;;;;;5.10;2.45;;;9.10;99.90;;;;;;4950922;28;20028;-44
2022/05/30 02:51:50;;;;;;;3.80;2.28;;;9.10;99.90;;;;;;4951019;28;20055;-44
2022/05/30 02:54:19;;;;;;;4.35;2.33;;;9.10;99.90;;;;;;4950285;29;20065;-44
2022/05/30 02:56:53;;;;;;;5.38;2.33;;;9.00;99.90;;;;;;4950652;28;20031;-44
2022/05/30 02:59:20;;;;;;;4.85;2.60;;;9.00;99.90;;;;;;4950666;29;20078;-43
2022/05/30 03:01:46;;;;;;;4.65;2.20;;;9.00;99.90;;;;;;4950459;28;20066;-44
2022/05/30 03:04:12;;;;;;;6.63;2.85;;;8.90;99.90;;;;;;4950776;29;20105;-43
2022/05/30 03:06:38;;;;;;;4.85;2.40;;;8.90;99.90;;;;;;4950416;29;20122;-43
2022/05/30 03:09:05;;;;;;;3.25;2.10;;;8.90;99.90;;;;;;4950140;28;20122;-43
2022/05/30 03:11:31;;;;;;;5.60;2.40;;;8.90;99.90;;;;;;4950673;29;20031;-43
2022/05/30 03:13:57;;;;;;;4.63;2.25;;;8.90;99.90;;;;;;4950117;28;20085;-44
2022/05/30 03:16:23;;;;;;;4.35;2.50;;;8.90;99.90;;;;;;4950754;29;20394;-43
2022/05/30 03:18:48;;;;;;;3.15;2.10;;;8.90;99.90;;;;;;4950570;28;20479;-43
2022/05/30 03:21:14;;;;;;;2.95;2.00;;;8.90;99.90;;;;;;4949111;28;20026;-43
2022/05/30 03:23:39;;;;;;;5.47;1.90;;;8.90;99.90;;;;;;4950614;29;20019;-43
2022/05/30 03:26:06;;;;;;;3.92;2.05;;;9.00;99.90;;;;;;4951053;29;20031;-44
2022/05/30 03:28:32;;;;;;;3.85;2.80;;;9.00;99.90;;;;;;4949490;28;20039;-43
2022/05/30 03:30:59;;;;;;;4.05;2.20;;;9.00;99.90;;;;;;4950120;29;20518;-44
2022/05/30 03:33:25;;;;;;;3.70;2.20;;;9.00;99.90;;;;;;4949726;28;20031;-43
2022/05/30 03:35:51;;;;;;;4.97;2.20;;;9.00;99.90;;;;;;4950011;29;20046;-43
2022/05/30 03:38:16;;;;;;;5.60;2.13;;;9.00;99.90;;;;;;4950555;28;20050;-44
2022/05/30 03:40:42;;;;;;;3.35;2.33;;;9.10;99.90;;;;;;4950431;29;20066;-44
2022/05/30 03:43:10;;;;;;;2.30;1.90;;;9.10;99.90;;;;;;4949723;28;20027;-43
2022/05/30 03:45:41;;;;;;;3.28;2.35;;;9.20;99.90;;;;;;4949137;28;20463;-43
2022/05/30 03:48:08;;;;;;;5.53;2.60;;;9.20;99.90;;;;;;4950317;28;20438;-43
2022/05/30 03:50:36;;;;;;;3.88;2.45;;;9.30;99.90;;;;;;4948841;28;20689;-44
2022/05/30 03:53:05;;;;;;;4.20;2.40;;;9.30;99.90;;;;;;4950464;28;20035;-43
2022/05/30 03:55:36;;;;;;;5.30;2.15;;;9.30;99.90;;;;;;4950316;28;20028;-44
2022/05/30 03:58:03;;;;;;;5.65;2.53;;;9.30;99.90;;;;;;4949190;28;20027;-44
2022/05/30 04:00:30;;;;;;;5.28;2.63;;;9.30;99.90;;;;;;4949966;28;20074;-44
2022/05/30 04:02:55;;;;;;;5.45;2.50;;;9.40;99.90;;;;;;4949957;28;20027;-44
2022/05/30 04:05:21;;;;;;;3.78;2.25;;;9.50;99.90;;;;;;4950233;28;20383;-44
2022/05/30 04:07:47;;;;;;;4.15;2.78;;;9.50;99.90;;;;;;4949608;28;20058;-44
2022/05/30 04:10:13;;;;;;;4.05;2.20;;;9.60;99.90;;;;;;4948935;29;20031;-44
2022/05/30 04:12:39;;;;;;;3.92;1.92;;;9.60;99.90;;;;;;4949766;29;20644;-44
2022/05/30 04:15:07;;;;;;;3.63;1.70;;;9.60;99.90;;;;;;4949857;29;20086;-45
2022/05/30 04:17:35;;;;;;;2.65;1.73;;;9.70;99.90;;;;;;4948637;28;20473;-44
2022/05/30 04:20:01;;;;;;;2.10;1.73;;;9.60;99.90;;;;;;4949789;28;20023;-45
2022/05/30 04:22:27;;;;;;;4.50;1.98;;;9.70;99.90;;;;;;4948454;28;20082;-44
2022/05/30 04:24:53;;;;;;;3.00;1.80;;;9.70;99.90;;;;;;4949229;29;20031;-45
2022/05/30 04:27:19;;;;;;;5.20;2.15;;;9.80;99.90;;;;;;4949494;28;20114;-44
2022/05/30 04:29:45;;;;;;;3.65;1.98;;;9.70;99.90;;;;;;4949545;29;20123;-44
2022/05/30 04:32:10;;;;;;;5.15;2.20;;;9.70;99.90;;;;;;4948705;28;20050;-44
2022/05/30 04:34:36;;;;;;;4.38;1.95;;;9.70;99.90;;;;;;4948835;29;20039;-44
2022/05/30 04:37:03;;;;;;;3.15;1.45;;;9.70;99.90;;;;;;4949257;28;20403;-44
2022/05/30 04:39:28;;;;;;;3.47;1.65;;;9.70;99.90;;;;;;4948356;28;20509;-44
2022/05/30 04:41:54;;;;;;;3.47;1.80;;;9.80;99.90;;;;;;4949162;29;20027;-44
2022/05/30 04:44:25;;;;;;;2.50;1.67;;;9.80;99.90;;;;;;4948829;29;20030;-44
2022/05/30 04:46:55;;;;;;;3.95;2.05;;;9.80;99.90;;;;;;4949083;28;20023;-45
2022/05/30 04:49:21;;;;;;;4.50;1.60;;;9.80;99.90;;;;;;4948554;29;20490;-43
2022/05/30 04:51:50;;;;;;;1.85;1.50;;;9.90;99.90;;;;;;4948719;29;20047;-44
2022/05/30 04:54:17;;;;;;;3.03;1.60;;;9.90;99.90;;;;;;4947943;29;20043;-44
2022/05/30 04:56:43;;;;;;;3.05;1.60;;;10.00;99.90;;;;;;4948747;28;20254;-44
2022/05/30 04:59:09;;;;;;;3.80;1.70;;;10.10;99.90;;;;;;4948809;28;20402;-44
2022/05/30 05:01:36;;;;;;;4.15;1.55;;;10.10;99.90;;;;;;4947942;28;20030;-44
2022/05/30 05:04:04;;;;;;;3.58;1.58;;;10.10;99.90;;;;;;4949000;28;20015;-45
2022/05/30 05:06:30;;;;;;;3.28;1.55;;;10.20;99.90;;;;;;4948099;28;20031;-45
2022/05/30 05:09:05;;;;;;;4.07;1.80;;;10.20;99.90;;;;;;4948585;28;20030;-44
2022/05/30 05:11:33;;;;;;;2.67;1.50;;;10.20;99.90;;;;;;4947415;28;20028;-44
2022/05/30 05:13:58;;;;;;;2.63;1.40;;;10.30;99.90;;;;;;4948058;29;20023;-44
2022/05/30 05:16:28;;;;;;;1.70;1.40;;;10.30;99.90;;;;;;4948596;29;20181;-46
2022/05/30 05:18:54;;;;;;;4.88;1.75;;;10.30;99.90;;;;;;4948569;29;20031;-43
2022/05/30 05:21:23;;;;;;;2.22;1.40;;;10.40;99.90;;;;;;4948213;28;20114;-44
2022/05/30 05:23:49;;;;;;;5.20;1.80;;;10.50;99.90;;;;;;4948467;28;20379;-44
2022/05/30 05:26:15;;;;;;;4.00;1.92;;;10.50;99.90;;;;;;4948610;28;20043;-43
2022/05/30 05:28:41;;;;;;;2.67;1.52;;;10.60;99.90;;;;;;4948321;28;20027;-44
2022/05/30 05:31:13;;;;;;;2.13;1.30;;;10.60;99.90;;;;;;4948715;28;20012;-44
2022/05/30 05:33:39;;;;;;;3.72;1.77;;;10.70;99.90;;;;;;4948332;29;20127;-44
2022/05/30 05:36:04;;;;;;;2.90;1.40;;;10.70;99.90;;;;;;4948005;29;20114;-44
2022/05/30 05:38:30;;;;;;;4.78;1.45;;;10.70;99.90;;;;;;4947744;28;20327;-45
2022/05/30 05:40:55;;;;;;;2.25;1.27;;;10.80;99.90;;;;;;4948232;28;20045;-44
2022/05/30 05:43:22;;;;;;;3.22;1.50;;;10.80;99.90;;;;;;4948142;29;20074;-44
2022/05/30 05:45:51;;;;;;;2.42;1.50;;;10.80;99.90;;;;;;4946048;28;20028;-44
2022/05/30 05:48:16;;;;;;;2.25;1.25;;;10.80;99.90;;;;;;4947040;28;20130;-43
2022/05/30 05:50:43;;;;;;;4.32;1.48;;;10.80;99.90;;;;;;4946790;29;20365;-43
2022/05/30 05:53:10;;;;;;;2.90;1.15;;;10.90;99.90;;;;;;4945612;28;20035;-44
2022/05/30 05:55:37;;;;;;;2.03;1.20;;;11.00;99.90;;;;;;4946354;29;20023;-43
2022/05/30 05:58:04;;;;;;;1.85;1.10;;;11.00;99.90;;;;;;4949760;28;20061;-44
2022/05/30 06:00:31;;;;;;;2.28;1.23;;;11.00;99.90;;;;;;4949901;28;20394;-43
2022/05/30 06:02:57;;;;;;;2.70;1.02;;;11.00;99.90;;;;;;4948647;28;20043;-44
2022/05/30 06:05:22;;;;;;;2.05;1.08;;;11.10;99.90;;;;;;4949132;29;20030;-45
2022/05/30 06:07:48;;;;;;;1.52;0.82;;;11.10;99.90;;;;;;4935909;29;20509;-44
2022/05/30 06:10:15;;;;;;;1.65;0.85;;;11.20;99.90;;;;;;4946103;29;20066;-44
2022/05/30 06:12:43;;;;;;;2.25;0.80;;;11.20;99.90;;;;;;4946940;28;20039;-44
2022/05/30 06:15:12;;;;;;;3.42;0.88;;;11.30;99.90;;;;;;4947246;28;20105;-44
2022/05/30 06:17:39;;;;;;;3.75;1.20;;;11.30;99.90;;;;;;4944974;29;20141;-44
2022/05/30 06:20:05;;;;;;;2.88;0.88;;;11.40;99.90;;;;;;4947997;28;20126;-44
2022/05/30 06:22:30;;;;;;;1.33;0.70;;;11.50;99.90;;;;;;4946159;28;20050;-45
2022/05/30 06:24:56;;;;;;;1.75;0.70;;;11.50;99.90;;;;;;4947271;29;20027;-44
2022/05/30 06:27:21;;;;;;;1.52;1.00;;;11.60;99.90;;;;;;4946858;29;20031;-44
2022/05/30 06:29:51;;;;;;;2.00;0.90;;;11.70;99.90;;;;;;4947526;29;20035;-44
2022/05/30 06:32:16;;;;;;;1.73;0.68;;;11.60;99.90;;;;;;4946394;28;20447;-44
2022/05/30 06:34:42;;;;;;;2.63;0.88;;;11.60;99.90;;;;;;4946986;29;20035;-44
2022/05/30 06:37:08;;;;;;;1.60;0.80;;;11.60;99.90;;;;;;4947001;28;20035;-44
2022/05/30 06:39:34;;;;;;;1.58;0.70;;;11.60;99.90;;;;;;4946448;28;20071;-44
2022/05/30 06:41:59;;;;;;;2.50;0.63;;;11.60;99.90;;;;;;4947362;29;20015;-44
2022/05/30 06:44:25;;;;;;;2.28;0.70;;;11.70;99.90;;;;;;4946803;29;20537;-44
2022/05/30 06:46:50;;;;;;;2.40;0.85;;;11.80;99.90;;;;;;4946097;29;20022;-44
2022/05/30 06:49:16;;;;;;;1.77;0.90;;;11.90;99.90;;;;;;4946808;29;20036;-44
2022/05/30 06:51:41;;;;;;;2.78;0.95;;;11.90;99.90;;;;;;4947165;28;20384;-44
2022/05/30 06:54:07;;;;;;;2.25;0.80;;;12.00;99.90;;;;;;4946808;29;20035;-44
2022/05/30 06:56:37;;;;;;;2.85;0.60;;;12.10;99.90;;;;;;4946910;28;20098;-44
2022/05/30 06:59:03;;;;;;;1.08;0.65;;;12.20;99.90;;;;;;4946913;28;20830;-44
2022/05/30 07:01:34;;;;;;;1.08;0.60;;;12.30;99.90;;;;;;4947592;29;20023;-44
2022/05/30 07:04:00;;;;;;;1.30;0.52;;;12.50;99.90;;;;;;4947515;28;20019;-43
2022/05/30 07:06:33;;;;;;;3.53;0.70;;;12.60;99.90;;;;;;4946755;28;20058;-44
2022/05/30 07:08:58;;;;;;;1.63;0.60;;;12.80;99.90;;;;;;4946917;28;20038;-44
2022/05/30 07:11:25;;;;;;;3.10;0.82;;;12.90;99.90;;;;;;4946777;28;20027;-44
2022/05/30 07:13:51;;;;;;;1.67;0.70;;;13.00;99.90;;;;;;4946898;29;20047;-44
2022/05/30 07:16:18;;;;;;;3.85;0.82;;;13.10;99.90;;;;;;4946652;29;20110;-43
2022/05/30 07:18:44;;;;;;;1.55;0.60;;;13.20;99.90;;;;;;4946410;28;20651;-44
2022/05/30 07:21:12;;;;;;;3.40;1.00;;;13.10;99.90;;;;;;4947199;28;20027;-44
2022/05/30 07:23:37;;;;;;;3.88;1.05;;;13.00;99.90;;;;;;4946519;28;20030;-44
2022/05/30 07:26:06;;;;;;;3.92;0.70;;;13.00;99.90;;;;;;4947380;29;20039;-45
2022/05/30 07:28:32;;;;;;;4.40;1.25;;;12.90;99.90;;;;;;4945299;28;20900;-45
2022/05/30 07:31:14;;;;;;;2.63;0.70;;;12.80;99.90;;;;;;4946664;28;20038;-44
2022/05/30 07:33:42;;;;;;;3.75;0.90;;;12.70;99.90;;;;;;4948165;28;20126;-45
2022/05/30 07:36:10;;;;;;;4.65;1.02;;;12.60;99.90;;;;;;4949981;28;20033;-44
2022/05/30 07:38:36;;;;;;;2.30;0.80;;;12.50;99.90;;;;;;4949791;28;20031;-44
2022/05/30 07:41:03;;;;;;;3.63;0.75;;;12.50;99.90;;;;;;4950340;29;20029;-45
2022/05/30 07:43:29;;;;;;;2.00;1.00;;;12.50;99.90;;;;;;4949102;28;20014;-45
2022/05/30 07:45:54;;;;;;;1.92;0.63;;;12.60;99.90;;;;;;4950530;28;20023;-45
2022/05/30 07:48:20;;;;;;;2.42;0.80;;;12.60;99.90;;;;;;4949081;29;20088;-44
2022/05/30 07:50:46;;;;;;;4.68;1.38;;;12.70;99.90;;;;;;4949784;28;20636;-44
2022/05/30 07:53:11;;;;;;;3.55;0.88;;;12.80;99.90;;;;;;4950445;28;20035;-45
2022/05/30 07:55:40;;;;;;;3.05;0.90;;;12.90;99.90;;;;;;4948957;29;20049;-45
2022/05/30 07:58:05;;;;;;;1.98;0.98;;;13.00;99.90;;;;;;4950084;29;20023;-44
2022/05/30 08:00:33;;;;;;;3.92;0.80;;;13.10;99.90;;;;;;4948942;28;20033;-44
2022/05/30 08:02:59;;;;;;;1.67;0.82;;;13.20;99.90;;;;;;4949499;28;20059;-44
2022/05/30 08:05:26;;;;;;;4.80;0.60;;;13.20;99.90;;;;;;4949667;28;20078;-44
2022/05/30 08:07:52;;;;;;;2.88;0.70;;;13.30;99.90;;;;;;4950161;28;20455;-48
2022/05/30 08:10:19;;;;;;;2.47;0.60;;;13.30;99.90;;;;;;4948365;28;20506;-44
2022/05/30 08:12:46;;;;;;;2.05;0.57;;;13.30;99.90;;;;;;4949278;28;20034;-44
2022/05/30 08:15:14;;;;;;;2.72;0.60;;;13.30;99.90;;;;;;4949772;28;20042;-44
2022/05/30 08:17:40;;;;;;;2.92;0.77;;;13.20;99.90;;;;;;4947064;28;20039;-44
2022/05/30 08:20:08;;;;;;;2.33;0.60;;;13.30;99.90;;;;;;4949337;28;20098;-44
2022/05/30 08:22:35;;;;;;;2.85;0.60;;;13.30;99.90;;;;;;4949322;28;20035;-45
2022/05/30 08:25:03;;;;;;;2.25;1.05;;;13.30;99.90;;;;;;4948615;29;20144;-45
2022/05/30 08:27:29;;;;;;;1.52;0.63;;;13.30;99.80;;;;;;4938620;29;20034;-45
2022/05/30 08:29:56;;;;;;;1.80;0.73;;;13.40;99.70;;;;;;4949614;28;20117;-44
2022/05/30 08:32:22;;;;;;;2.22;0.80;;;13.30;99.60;;;;;;4948790;28;20035;-45
2022/05/30 08:34:48;;;;;;;2.65;0.80;;;13.40;99.60;;;;;;4949206;28;20056;-45
2022/05/30 08:37:13;;;;;;;2.78;0.60;;;13.50;99.50;;;;;;4949087;29;20037;-44
2022/05/30 08:42:31;;;;;;;2.85;0.80;;;13.70;99.30;;;;;;4948135;29;20459;-44
2022/05/30 08:45:04;;;;;;;3.83;0.90;;;13.80;99.10;;;;;;4947623;28;20399;-44
2022/05/30 08:47:51;;;;;;;1.50;0.68;;;13.90;99.00;;;;;;4948592;28;20478;-44
2022/05/30 08:51:14;;;;;;;4.28;0.80;;;13.90;98.90;;;;;;4948703;29;20042;-44
2022/05/30 08:54:07;;;;;;;2.80;0.85;;;14.10;98.90;;;;;;4915638;29;20114;-44
2022/05/30 08:56:38;;;;;;;3.05;0.88;;;14.20;98.60;;;;;;4948614;29;20066;-45
2022/05/30 08:59:30;;;;;;;1.45;0.70;;;14.20;98.40;;;;;;4948175;28;20023;-44
2022/05/30 09:02:32;;;;;;;2.60;0.88;;;14.30;98.40;;;;;;4948622;28;20517;-45
2022/05/30 09:05:33;;;;;;;2.50;0.70;;;14.40;98.40;;;;;;4945328;29;20039;-45
2022/05/30 09:08:03;;;;;;;2.30;0.80;;;14.40;98.30;;;;;;4937042;29;20043;-44
2022/05/30 09:10:30;;;;;;;0.98;0.52;;;14.50;98.40;;;;;;4948145;28;20027;-45
2022/05/30 09:13:00;;;;;;;3.30;0.75;;;14.50;98.40;;;;;;4948038;28;20545;-45
2022/05/30 09:15:40;;;;;;;3.20;0.90;;;14.50;98.30;;;;;;4928997;29;20023;-44
2022/05/30 09:18:30;;;;;;;1.55;0.80;;;14.50;98.20;;;;;;4945417;29;20041;-44
2022/05/30 09:20:56;;;;;;;2.58;0.98;;;14.40;98.10;;;;;;4948481;28;20059;-44
2022/05/30 09:23:24;;;;;;;1.80;0.60;;;14.40;98.20;;;;;;4948694;29;20074;-44
2022/05/30 09:26:07;;;;;;;2.05;0.55;;;14.40;98.30;;;;;;4949253;28;20031;-45
2022/05/30 09:28:39;;;;;;;0.95;0.63;;;14.40;98.30;;;;;;4947383;28;20035;-44
2022/05/30 09:31:29;;;;;;;3.35;1.80;;;14.50;98.20;;;;;;4948229;28;20375;-44
2022/05/30 09:33:57;;;;;;;3.13;1.20;;;14.60;98.20;;;;;;4947685;29;20045;-44
2022/05/30 09:36:31;;;;;;;3.63;1.20;;;14.70;97.90;;;;;;4948230;29;20026;-44
2022/05/30 09:38:58;;;;;;;1.77;0.82;;;14.80;97.90;;;;;;4947907;29;20569;-44
2022/05/30 09:41:27;;;;;;;1.50;0.82;;;14.80;97.80;;;;;;4947078;29;20122;-44
2022/05/30 09:43:58;;;;;;;1.50;0.60;;;14.90;97.70;;;;;;4948339;28;20037;-44
2022/05/30 09:46:56;;;;;;;1.83;0.70;;;15.00;97.50;;;;;;4947387;28;20510;-44
2022/05/30 09:49:25;;;;;;;1.77;0.73;;;15.00;97.30;;;;;;4939495;28;20039;-44
2022/05/30 09:52:00;;;;;;;1.25;0.82;;;15.00;97.10;;;;;;4947350;29;20059;-43
2022/05/30 09:54:25;;;;;;;2.15;0.80;;;15.00;96.90;;;;;;4948080;28;20107;-44
2022/05/30 09:57:10;;;;;;;2.30;0.70;;;15.00;96.90;;;;;;4946986;28;20058;-44
2022/05/30 09:59:40;;;;;;;2.30;0.70;;;14.90;97.00;;;;;;4947373;29;20094;-44
2022/05/30 10:02:29;;;;;;;3.75;0.90;;;14.80;97.10;;;;;;4947671;29;20086;-44
2022/05/30 10:05:23;;;;;;;2.85;1.00;;;14.80;97.00;;;;;;4947796;29;20563;-44
2022/05/30 10:08:00;;;;;;;1.98;0.80;;;14.70;96.90;;;;;;4948234;28;20383;-45
2022/05/30 10:10:39;;;;;;;3.22;0.80;;;14.70;96.90;;;;;;4946093;29;20062;-44
2022/05/30 10:13:07;;;;;;;1.60;0.70;;;14.60;96.90;;;;;;4948530;28;20399;-44
2022/05/30 10:15:41;;;;;;;2.60;0.70;;;14.60;96.80;;;;;;4947456;28;20039;-44
2022/05/30 10:18:13;;;;;;;1.52;0.95;;;14.50;96.70;;;;;;4946659;28;20035;-45
2022/05/30 10:21:17;;;;;;;2.75;0.80;;;14.50;96.60;;;;;;4947152;29;20027;-44
2022/05/30 10:30:21;;;;;;;1.55;0.90;;;14.20;96.70;;;;;;4947019;29;20545;-45
2022/05/30 10:33:13;;;;;;;2.83;1.17;;;14.20;96.70;;;;;;4947316;29;20125;-44
2022/05/30 10:36:04;;;;;;;2.53;1.23;;;14.20;96.70;;;;;;4947377;29;20618;-44
2022/05/30 10:38:47;;;;;;;3.63;1.10;;;14.10;96.60;;;;;;4927625;29;20051;-44
2022/05/30 10:41:29;;;;;;;4.00;1.02;;;14.00;96.50;;;;;;4946086;29;20027;-44
2022/05/30 10:44:08;;;;;;;1.50;0.70;;;14.00;96.60;;;;;;4947100;29;20038;-45
2022/05/30 10:46:58;;;;;;;2.22;0.93;;;14.00;96.60;;;;;;4947395;28;20023;-46
2022/05/30 10:49:30;;;;;;;1.92;0.90;;;14.00;96.50;;;;;;4947601;28;20020;-44
2022/05/30 10:52:02;;;;;;;2.47;1.17;;;14.00;96.50;;;;;;4943133;28;20071;-45
2022/05/30 10:54:32;;;;;;;1.88;1.00;;;14.00;96.40;;;;;;4947270;29;20065;-45
2022/05/30 10:57:24;;;;;;;1.83;0.80;;;14.10;96.40;;;;;;4946763;29;20019;-43
2022/05/30 11:00:03;;;;;;;2.65;0.98;;;14.10;96.40;;;;;;4946442;29;20027;-44
2022/05/30 11:02:48;;;;;;;3.00;1.13;;;14.10;96.20;;;;;;4946489;28;20550;-44
2022/05/30 11:05:42;;;;;;;2.55;0.82;;;14.10;96.20;;;;;;4946232;28;20387;-44
2022/05/30 11:08:29;;;;;;;1.52;1.23;;;14.20;96.10;;;;;;4939645;28;20398;-43
2022/05/30 11:11:05;;;;;;;1.45;0.90;;;14.20;95.90;;;;;;4951710;28;20113;-44
2022/05/30 11:13:50;;;;;;;2.30;0.90;;;14.30;96.00;;;;;;4949895;29;20039;-43
2022/05/30 11:16:44;;;;;;;2.25;1.10;;;14.30;95.90;;;;;;4949570;28;20031;-42
2022/05/30 11:19:42;;;;;;;1.42;0.60;;;14.40;96.00;;;;;;4950007;28;20055;-43
2022/05/30 11:22:13;;;;;;;2.35;0.75;;;14.50;96.10;;;;;;4950379;29;20126;-44
2022/05/30 11:24:39;;;;;;;3.17;0.98;;;14.60;95.90;;;;;;4950538;28;20609;-43
2022/05/30 11:27:34;;;;;;;1.98;0.63;;;14.70;95.80;;;;;;4950100;29;20586;-44
2022/05/30 11:30:21;;;;;;;3.80;0.70;;;14.80;95.80;;;;;;4931937;29;20036;-44
2022/05/30 11:33:00;;;;;;;2.00;0.90;;;15.00;95.70;;;;;;4948062;29;20039;-44
2022/05/30 11:35:40;;;;;;;3.35;0.80;;;15.00;95.60;;;;;;4949817;28;20041;-45
2022/05/30 11:38:28;;;;;;;4.07;0.80;;;15.10;95.60;;;;;;4950443;28;20027;-45
2022/05/30 11:40:58;;;;;;;1.48;0.77;;;15.20;95.50;;;;;;4949970;28;20031;-45
2022/05/30 11:43:30;;;;;;;2.63;0.80;;;15.30;95.60;;;;;;4949799;29;20051;-44
2022/05/30 11:46:10;;;;;;;2.00;0.83;;;15.40;95.50;;;;;;4950624;28;20039;-45
2022/05/30 11:49:05;;;;;;;1.10;0.80;;;15.40;95.40;;;;;;4949172;29;20031;-45
2022/05/30 11:51:45;;;;;;;1.98;0.82;;;15.50;95.40;;;;;;4949897;28;20058;-45
2022/05/30 11:54:30;;;;;;;2.70;1.00;;;15.60;95.30;;;;;;4948545;28;20121;-44
2022/05/30 11:57:12;;;;;;;2.13;0.80;;;15.70;95.30;;;;;;4950933;29;20465;-44
2022/05/30 12:00:01;;;;;;;1.80;0.90;;;15.80;95.20;;;;;;4939279;29;20510;-45
2022/05/30 12:02:57;;;;;;;1.52;0.93;;;15.80;95.00;;;;;;4948722;28;20114;-43
2022/05/30 12:06:03;;;;;;;2.08;1.00;;;15.90;94.80;;;;;;4948553;29;20035;-45
2022/05/30 12:08:41;;;;;;;1.98;1.00;;;16.00;94.70;;;;;;4948599;29;20170;-45
2022/05/30 12:11:17;;;;;;;2.38;1.15;;;16.00;94.60;;;;;;4950098;29;20027;-44
2022/05/30 12:14:21;;;;;;;1.42;1.10;;;16.10;94.60;;;;;;4949607;29;20089;-44
2022/05/30 12:17:12;;;;;;;2.10;1.05;;;16.20;94.40;;;;;;4920928;29;20043;-44
2022/05/30 12:25:38;;;;;;;2.97;1.42;;;16.20;93.60;;;;;;4950229;29;20055;-45
2022/05/30 12:28:26;;;;;;;2.20;0.90;;;16.30;93.40;;;;;;4949358;28;20027;-43
2022/05/30 12:30:55;;;;;;;3.25;1.15;;;16.30;93.40;;;;;;4949165;29;20039;-44
2022/05/30 12:33:27;;;;;;;1.90;1.00;;;16.30;92.80;;;;;;4949212;28;20050;-43
2022/05/30 12:36:08;;;;;;;4.40;1.17;;;16.30;92.70;;;;;;4941278;29;20074;-43
2022/05/30 12:38:54;;;;;;;3.42;1.13;;;16.30;92.80;;;;;;4948036;29;20061;-43
2022/05/30 12:41:31;;;;;;;2.00;0.98;;;16.40;92.70;;;;;;4949103;28;20171;-45
2022/05/30 12:43:57;;;;;;;2.28;1.17;;;16.50;92.60;;;;;;4948840;29;20645;-44
2022/05/30 12:46:25;;;;;;;5.22;1.20;;;16.60;92.50;;;;;;4949424;28;20116;-45
2022/05/30 12:48:53;;;;;;;1.73;1.05;;;16.70;92.30;;;;;;4948807;29;20031;-44
2022/05/30 12:51:37;;;;;;;1.45;0.93;;;16.80;92.10;;;;;;4948236;28;20050;-45
2022/05/30 12:54:02;;;;;;;1.80;1.02;;;16.90;91.90;;;;;;4949015;28;20045;-45
2022/05/30 12:56:37;;;;;;;1.67;0.82;;;17.00;91.70;;;;;;4948484;28;20513;-44
2022/05/30 12:59:02;;;;;;;4.18;1.15;;;17.20;91.50;;;;;;4948879;29;20031;-44
2022/05/30 13:01:49;;;;;;;4.20;1.10;;;17.30;91.50;;;;;;4948751;29;20036;-44
2022/05/30 13:04:27;;;;;;;1.88;0.88;;;17.30;91.10;;;;;;4947912;29;20066;-45
2022/05/30 13:06:58;;;;;;;2.58;0.90;;;17.40;91.00;;;;;;4948530;29;20035;-44
2022/05/30 13:09:36;;;;;;;1.67;0.85;;;17.40;90.70;;;;;;4948151;29;20023;-45
2022/05/30 13:12:10;;;;;;;1.58;0.60;;;17.50;90.70;;;;;;4937538;29;20035;-44
2022/05/30 13:14:57;;;;;;;1.25;0.70;;;17.50;90.60;;;;;;4947991;29;20114;-44
2022/05/30 13:17:43;;;;;;;3.58;0.88;;;17.60;90.40;;;;;;4939412;29;20042;-44
2022/05/30 13:20:15;;;;;;;2.45;0.70;;;17.50;89.20;;;;;;4948209;28;20039;-44
2022/05/30 13:22:43;;;;;;;;;;;17.40;89.30;;;;;;4949110;29;20035;-44
2022/05/30 13:25:12;;;;;;;1.67;0.60;;;17.40;89.60;;;;;;4948860;28;19910;-44
2022/05/30 13:27:38;;;;;;;1.35;0.70;;;17.40;90.00;;;;;;4948328;29;20033;-44
2022/05/30 13:30:10;;;;;;;2.22;0.63;;;17.50;90.00;;;;;;4947805;29;20019;-45
2022/05/30 13:32:37;;;;;;;1.67;0.80;;;17.60;89.20;;;;;;4947353;28;20575;-44